sensor_id;sensor_type;location;lat;lon;timestamp;P1;durP1;ratioP1;P2;durP2;ratioP2
2326;SDS011;1174;51.588;7.328;2023-04-24T00:02:02;2.60;;;0.90;;
2326;SDS011;1174;51.588;7.328;2023-04-24T00:04:31;1.00;;;0.80;;
2326;SDS011;1174;51.588;7.328;2023-04-24T00:07:00;1.20;;;0.80;;
2326;SDS011;1174;51.588;7.328;2023-04-24T00:09:31;1.10;;;0.83;;
2326;SDS011;1174;51.588;7.328;2023-04-24T00:11:58;1.43;;;0.83;;
2326;SDS011;1174;51.588;7.328;2023-04-24T00:14:28;1.10;;;0.87;;
2326;SDS011;1174;51.588;7.328;2023-04-24T00:16:56;1.00;;;0.70;;
2326;SDS011;1174;51.588;7.328;2023-04-24T00:19:23;1.17;;;0.80;;
2326;SDS011;1174;51.588;7.328;2023-04-24T00:21:50;1.37;;;0.70;;
2326;SDS011;1174;51.588;7.328;2023-04-24T00:24:19;1.43;;;1.00;;
2326;SDS011;1174;51.588;7.328;2023-04-24T00:26:46;2.07;;;1.23;;
2326;SDS011;1174;51.588;7.328;2023-04-24T00:29:13;1.30;;;1.10;;
2326;SDS011;1174;51.588;7.328;2023-04-24T00:31:42;1.23;;;0.87;;
2326;SDS011;1174;51.588;7.328;2023-04-24T00:34:10;1.20;;;0.90;;
2326;SDS011;1174;51.588;7.328;2023-04-24T00:36:39;1.30;;;0.90;;
2326;SDS011;1174;51.588;7.328;2023-04-24T00:39:06;1.27;;;0.90;;
2326;SDS011;1174;51.588;7.328;2023-04-24T00:44:06;1.10;;;0.90;;
2326;SDS011;1174;51.588;7.328;2023-04-24T00:46:33;1.13;;;0.90;;
2326;SDS011;1174;51.588;7.328;2023-04-24T00:49:00;2.17;;;0.93;;
2326;SDS011;1174;51.588;7.328;2023-04-24T00:51:29;1.30;;;0.90;;
2326;SDS011;1174;51.588;7.328;2023-04-24T00:53:56;1.20;;;0.90;;
2326;SDS011;1174;51.588;7.328;2023-04-24T00:56:22;1.60;;;0.90;;
2326;SDS011;1174;51.588;7.328;2023-04-24T00:58:53;1.30;;;1.17;;
2326;SDS011;1174;51.588;7.328;2023-04-24T01:01:20;1.30;;;0.90;;
2326;SDS011;1174;51.588;7.328;2023-04-24T01:03:48;1.30;;;0.97;;
2326;SDS011;1174;51.588;7.328;2023-04-24T01:06:17;1.13;;;0.93;;
2326;SDS011;1174;51.588;7.328;2023-04-24T01:08:45;2.63;;;1.43;;
2326;SDS011;1174;51.588;7.328;2023-04-24T01:11:16;1.87;;;1.60;;
2326;SDS011;1174;51.588;7.328;2023-04-24T01:13:48;1.20;;;0.90;;
2326;SDS011;1174;51.588;7.328;2023-04-24T01:16:17;1.20;;;0.90;;
2326;SDS011;1174;51.588;7.328;2023-04-24T01:18:45;1.30;;;0.90;;
2326;SDS011;1174;51.588;7.328;2023-04-24T01:21:13;1.13;;;0.97;;
2326;SDS011;1174;51.588;7.328;2023-04-24T01:23:42;1.20;;;0.90;;
2326;SDS011;1174;51.588;7.328;2023-04-24T01:26:10;1.33;;;0.70;;
2326;SDS011;1174;51.588;7.328;2023-04-24T01:28:37;3.80;;;3.50;;
2326;SDS011;1174;51.588;7.328;2023-04-24T01:31:04;3.23;;;1.27;;
2326;SDS011;1174;51.588;7.328;2023-04-24T01:33:32;1.20;;;1.00;;
2326;SDS011;1174;51.588;7.328;2023-04-24T01:35:59;1.40;;;1.10;;
2326;SDS011;1174;51.588;7.328;2023-04-24T01:38:26;1.40;;;1.00;;
2326;SDS011;1174;51.588;7.328;2023-04-24T01:40:55;1.17;;;0.83;;
2326;SDS011;1174;51.588;7.328;2023-04-24T01:43:25;1.33;;;1.00;;
2326;SDS011;1174;51.588;7.328;2023-04-24T01:45:52;3.03;;;1.27;;
2326;SDS011;1174;51.588;7.328;2023-04-24T01:48:19;1.53;;;1.17;;
2326;SDS011;1174;51.588;7.328;2023-04-24T01:50:46;1.50;;;1.30;;
2326;SDS011;1174;51.588;7.328;2023-04-24T01:53:15;2.07;;;1.67;;
2326;SDS011;1174;51.588;7.328;2023-04-24T01:55:42;3.30;;;1.63;;
2326;SDS011;1174;51.588;7.328;2023-04-24T01:58:10;1.47;;;1.37;;
2326;SDS011;1174;51.588;7.328;2023-04-24T02:00:37;1.40;;;1.00;;
2326;SDS011;1174;51.588;7.328;2023-04-24T02:03:05;1.97;;;1.30;;
2326;SDS011;1174;51.588;7.328;2023-04-24T02:05:34;2.17;;;1.70;;
2326;SDS011;1174;51.588;7.328;2023-04-24T02:08:01;3.63;;;1.87;;
2326;SDS011;1174;51.588;7.328;2023-04-24T02:10:28;2.87;;;1.70;;
2326;SDS011;1174;51.588;7.328;2023-04-24T02:12:55;3.33;;;2.20;;
2326;SDS011;1174;51.588;7.328;2023-04-24T02:15:28;1.60;;;1.33;;
2326;SDS011;1174;51.588;7.328;2023-04-24T02:17:55;2.83;;;2.00;;
2326;SDS011;1174;51.588;7.328;2023-04-24T02:20:22;2.73;;;1.80;;
2326;SDS011;1174;51.588;7.328;2023-04-24T02:22:49;1.87;;;1.10;;
2326;SDS011;1174;51.588;7.328;2023-04-24T02:25:17;1.63;;;1.27;;
2326;SDS011;1174;51.588;7.328;2023-04-24T02:27:44;1.83;;;1.53;;
2326;SDS011;1174;51.588;7.328;2023-04-24T02:30:11;2.20;;;1.30;;
2326;SDS011;1174;51.588;7.328;2023-04-24T02:32:40;1.93;;;1.40;;
2326;SDS011;1174;51.588;7.328;2023-04-24T02:35:08;1.60;;;1.47;;
2326;SDS011;1174;51.588;7.328;2023-04-24T02:37:35;2.90;;;1.50;;
2326;SDS011;1174;51.588;7.328;2023-04-24T02:40:02;2.73;;;1.63;;
2326;SDS011;1174;51.588;7.328;2023-04-24T02:42:32;1.90;;;1.60;;
2326;SDS011;1174;51.588;7.328;2023-04-24T02:44:59;3.13;;;1.77;;
2326;SDS011;1174;51.588;7.328;2023-04-24T02:47:26;5.37;;;2.60;;
2326;SDS011;1174;51.588;7.328;2023-04-24T02:49:54;3.17;;;2.50;;
2326;SDS011;1174;51.588;7.328;2023-04-24T02:52:26;2.93;;;2.70;;
2326;SDS011;1174;51.588;7.328;2023-04-24T02:54:53;5.00;;;3.23;;
2326;SDS011;1174;51.588;7.328;2023-04-24T02:57:21;4.00;;;2.93;;
2326;SDS011;1174;51.588;7.328;2023-04-24T02:59:48;4.60;;;2.60;;
2326;SDS011;1174;51.588;7.328;2023-04-24T03:02:16;5.27;;;3.50;;
2326;SDS011;1174;51.588;7.328;2023-04-24T03:04:45;2.13;;;1.93;;
2326;SDS011;1174;51.588;7.328;2023-04-24T03:07:16;3.07;;;2.60;;
2326;SDS011;1174;51.588;7.328;2023-04-24T03:09:45;7.47;;;2.67;;
2326;SDS011;1174;51.588;7.328;2023-04-24T03:12:13;3.70;;;2.33;;
2326;SDS011;1174;51.588;7.328;2023-04-24T03:14:42;6.57;;;3.03;;
2326;SDS011;1174;51.588;7.328;2023-04-24T03:17:09;3.50;;;2.73;;
2326;SDS011;1174;51.588;7.328;2023-04-24T03:19:36;4.70;;;2.63;;
2326;SDS011;1174;51.588;7.328;2023-04-24T03:22:03;7.83;;;2.87;;
2326;SDS011;1174;51.588;7.328;2023-04-24T03:24:32;6.90;;;4.30;;
2326;SDS011;1174;51.588;7.328;2023-04-24T03:26:59;5.23;;;3.47;;
2326;SDS011;1174;51.588;7.328;2023-04-24T03:29:26;14.40;;;5.30;;
2326;SDS011;1174;51.588;7.328;2023-04-24T03:31:53;5.33;;;4.83;;
2326;SDS011;1174;51.588;7.328;2023-04-24T03:34:23;9.20;;;3.73;;
2326;SDS011;1174;51.588;7.328;2023-04-24T03:36:50;4.57;;;3.40;;
2326;SDS011;1174;51.588;7.328;2023-04-24T03:39:17;9.53;;;5.53;;
2326;SDS011;1174;51.588;7.328;2023-04-24T03:41:46;5.57;;;3.20;;
2326;SDS011;1174;51.588;7.328;2023-04-24T03:44:13;4.50;;;4.10;;
2326;SDS011;1174;51.588;7.328;2023-04-24T03:46:40;7.00;;;4.17;;
2326;SDS011;1174;51.588;7.328;2023-04-24T03:49:07;3.07;;;2.23;;
2326;SDS011;1174;51.588;7.328;2023-04-24T03:51:34;8.30;;;4.23;;
2326;SDS011;1174;51.588;7.328;2023-04-24T03:54:01;7.30;;;4.17;;
2326;SDS011;1174;51.588;7.328;2023-04-24T03:56:29;5.20;;;2.60;;
2326;SDS011;1174;51.588;7.328;2023-04-24T03:58:57;6.37;;;3.27;;
2326;SDS011;1174;51.588;7.328;2023-04-24T04:01:24;4.80;;;3.70;;
2326;SDS011;1174;51.588;7.328;2023-04-24T04:03:53;6.13;;;3.70;;
2326;SDS011;1174;51.588;7.328;2023-04-24T04:06:26;7.23;;;4.60;;
2326;SDS011;1174;51.588;7.328;2023-04-24T04:08:54;7.33;;;4.70;;
2326;SDS011;1174;51.588;7.328;2023-04-24T04:11:24;5.40;;;4.10;;
2326;SDS011;1174;51.588;7.328;2023-04-24T04:13:52;3.60;;;3.30;;
2326;SDS011;1174;51.588;7.328;2023-04-24T04:16:21;10.37;;;3.30;;
2326;SDS011;1174;51.588;7.328;2023-04-24T04:18:48;10.97;;;4.53;;
2326;SDS011;1174;51.588;7.328;2023-04-24T04:21:17;13.30;;;5.50;;
2326;SDS011;1174;51.588;7.328;2023-04-24T04:23:44;4.93;;;4.00;;
2326;SDS011;1174;51.588;7.328;2023-04-24T04:26:11;6.37;;;4.13;;
2326;SDS011;1174;51.588;7.328;2023-04-24T04:28:38;9.27;;;4.90;;
2326;SDS011;1174;51.588;7.328;2023-04-24T04:31:05;5.60;;;3.30;;
2326;SDS011;1174;51.588;7.328;2023-04-24T04:33:35;4.00;;;3.47;;
2326;SDS011;1174;51.588;7.328;2023-04-24T04:36:03;7.97;;;4.90;;
2326;SDS011;1174;51.588;7.328;2023-04-24T04:38:31;6.23;;;3.77;;
2326;SDS011;1174;51.588;7.328;2023-04-24T04:40:58;4.77;;;3.93;;
2326;SDS011;1174;51.588;7.328;2023-04-24T04:43:27;5.80;;;3.20;;
2326;SDS011;1174;51.588;7.328;2023-04-24T04:45:57;8.50;;;5.30;;
2326;SDS011;1174;51.588;7.328;2023-04-24T04:48:25;6.20;;;4.83;;
2326;SDS011;1174;51.588;7.328;2023-04-24T04:50:55;5.03;;;3.30;;
2326;SDS011;1174;51.588;7.328;2023-04-24T04:53:24;4.90;;;3.87;;
2326;SDS011;1174;51.588;7.328;2023-04-24T04:55:51;4.23;;;3.83;;
2326;SDS011;1174;51.588;7.328;2023-04-24T04:58:18;6.17;;;3.43;;
2326;SDS011;1174;51.588;7.328;2023-04-24T05:00:46;10.23;;;4.87;;
2326;SDS011;1174;51.588;7.328;2023-04-24T05:03:13;4.70;;;4.30;;
2326;SDS011;1174;51.588;7.328;2023-04-24T05:05:40;6.70;;;3.77;;
2326;SDS011;1174;51.588;7.328;2023-04-24T05:08:09;7.30;;;3.67;;
2326;SDS011;1174;51.588;7.328;2023-04-24T05:10:36;9.30;;;4.70;;
2326;SDS011;1174;51.588;7.328;2023-04-24T05:13:03;8.03;;;5.33;;
2326;SDS011;1174;51.588;7.328;2023-04-24T05:15:34;5.43;;;3.50;;
2326;SDS011;1174;51.588;7.328;2023-04-24T05:18:00;6.23;;;3.73;;
2326;SDS011;1174;51.588;7.328;2023-04-24T05:20:28;7.33;;;5.10;;
2326;SDS011;1174;51.588;7.328;2023-04-24T05:22:55;8.40;;;4.13;;
2326;SDS011;1174;51.588;7.328;2023-04-24T05:25:23;5.60;;;4.23;;
2326;SDS011;1174;51.588;7.328;2023-04-24T05:27:50;5.30;;;3.40;;
2326;SDS011;1174;51.588;7.328;2023-04-24T05:30:20;4.70;;;3.53;;
2326;SDS011;1174;51.588;7.328;2023-04-24T05:32:47;5.03;;;3.43;;
2326;SDS011;1174;51.588;7.328;2023-04-24T05:35:14;6.47;;;5.30;;
2326;SDS011;1174;51.588;7.328;2023-04-24T05:37:41;7.23;;;4.03;;
2326;SDS011;1174;51.588;7.328;2023-04-24T05:40:09;6.60;;;3.40;;
2326;SDS011;1174;51.588;7.328;2023-04-24T05:42:39;3.50;;;3.10;;
2326;SDS011;1174;51.588;7.328;2023-04-24T05:45:07;2.97;;;2.50;;
2326;SDS011;1174;51.588;7.328;2023-04-24T05:47:36;7.60;;;4.43;;
2326;SDS011;1174;51.588;7.328;2023-04-24T05:50:05;5.30;;;2.50;;
2326;SDS011;1174;51.588;7.328;2023-04-24T05:52:32;4.67;;;3.60;;
2326;SDS011;1174;51.588;7.328;2023-04-24T05:54:59;4.07;;;3.23;;
2326;SDS011;1174;51.588;7.328;2023-04-24T05:57:27;11.33;;;4.30;;
2326;SDS011;1174;51.588;7.328;2023-04-24T05:59:56;2.60;;;2.33;;
2326;SDS011;1174;51.588;7.328;2023-04-24T06:02:23;3.50;;;3.20;;
2326;SDS011;1174;51.588;7.328;2023-04-24T06:04:51;3.70;;;3.33;;
2326;SDS011;1174;51.588;7.328;2023-04-24T06:07:17;5.27;;;4.17;;
2326;SDS011;1174;51.588;7.328;2023-04-24T06:09:46;8.40;;;4.60;;
2326;SDS011;1174;51.588;7.328;2023-04-24T06:12:13;4.90;;;3.67;;
2326;SDS011;1174;51.588;7.328;2023-04-24T06:14:40;3.40;;;3.10;;
2326;SDS011;1174;51.588;7.328;2023-04-24T06:17:09;6.43;;;3.70;;
2326;SDS011;1174;51.588;7.328;2023-04-24T06:19:36;4.13;;;3.43;;
2326;SDS011;1174;51.588;7.328;2023-04-24T06:22:03;4.57;;;2.60;;
2326;SDS011;1174;51.588;7.328;2023-04-24T06:24:31;6.10;;;3.40;;
2326;SDS011;1174;51.588;7.328;2023-04-24T06:26:58;9.77;;;3.60;;
2326;SDS011;1174;51.588;7.328;2023-04-24T06:29:26;11.83;;;3.03;;
2326;SDS011;1174;51.588;7.328;2023-04-24T06:31:53;2.60;;;2.27;;
2326;SDS011;1174;51.588;7.328;2023-04-24T06:34:21;7.53;;;3.80;;
2326;SDS011;1174;51.588;7.328;2023-04-24T06:36:48;3.87;;;3.57;;
2326;SDS011;1174;51.588;7.328;2023-04-24T06:39:15;5.90;;;3.30;;
2326;SDS011;1174;51.588;7.328;2023-04-24T06:41:45;4.57;;;3.43;;
2326;SDS011;1174;51.588;7.328;2023-04-24T06:44:12;9.00;;;3.80;;
2326;SDS011;1174;51.588;7.328;2023-04-24T06:46:40;4.10;;;3.47;;
2326;SDS011;1174;51.588;7.328;2023-04-24T06:49:09;3.80;;;2.93;;
2326;SDS011;1174;51.588;7.328;2023-04-24T06:51:38;3.03;;;2.50;;
2326;SDS011;1174;51.588;7.328;2023-04-24T06:54:07;4.47;;;3.40;;
2326;SDS011;1174;51.588;7.328;2023-04-24T06:56:38;2.80;;;1.93;;
2326;SDS011;1174;51.588;7.328;2023-04-24T06:59:17;3.47;;;2.70;;
2326;SDS011;1174;51.588;7.328;2023-04-24T07:01:47;12.60;;;2.50;;
2326;SDS011;1174;51.588;7.328;2023-04-24T07:04:14;2.20;;;1.87;;
2326;SDS011;1174;51.588;7.328;2023-04-24T07:06:43;1.43;;;0.90;;
2326;SDS011;1174;51.588;7.328;2023-04-24T07:09:11;4.07;;;3.10;;
2326;SDS011;1174;51.588;7.328;2023-04-24T07:11:41;3.20;;;2.83;;
2326;SDS011;1174;51.588;7.328;2023-04-24T07:14:09;2.60;;;2.40;;
2326;SDS011;1174;51.588;7.328;2023-04-24T07:16:37;8.00;;;3.23;;
2326;SDS011;1174;51.588;7.328;2023-04-24T07:19:04;6.27;;;3.50;;
2326;SDS011;1174;51.588;7.328;2023-04-24T07:21:31;3.00;;;1.90;;
2326;SDS011;1174;51.588;7.328;2023-04-24T07:24:00;3.33;;;2.93;;
2326;SDS011;1174;51.588;7.328;2023-04-24T07:26:28;2.13;;;1.93;;
2326;SDS011;1174;51.588;7.328;2023-04-24T07:28:56;2.57;;;2.10;;
2326;SDS011;1174;51.588;7.328;2023-04-24T07:31:23;2.33;;;1.70;;
2326;SDS011;1174;51.588;7.328;2023-04-24T07:33:54;7.20;;;2.50;;
2326;SDS011;1174;51.588;7.328;2023-04-24T07:36:23;1.87;;;1.30;;
2326;SDS011;1174;51.588;7.328;2023-04-24T07:38:51;2.93;;;2.13;;
2326;SDS011;1174;51.588;7.328;2023-04-24T07:41:19;1.70;;;1.57;;
2326;SDS011;1174;51.588;7.328;2023-04-24T07:43:47;2.00;;;1.23;;
2326;SDS011;1174;51.588;7.328;2023-04-24T07:46:14;3.87;;;1.77;;
2326;SDS011;1174;51.588;7.328;2023-04-24T07:48:41;2.20;;;2.00;;
2326;SDS011;1174;51.588;7.328;2023-04-24T07:51:08;2.60;;;2.13;;
2326;SDS011;1174;51.588;7.328;2023-04-24T07:53:38;2.00;;;1.57;;
2326;SDS011;1174;51.588;7.328;2023-04-24T07:56:05;2.60;;;1.30;;
2326;SDS011;1174;51.588;7.328;2023-04-24T07:58:34;3.13;;;1.37;;
2326;SDS011;1174;51.588;7.328;2023-04-24T08:01:02;1.60;;;1.10;;
2326;SDS011;1174;51.588;7.328;2023-04-24T08:03:29;2.10;;;1.13;;
2326;SDS011;1174;51.588;7.328;2023-04-24T08:05:56;1.10;;;0.90;;
2326;SDS011;1174;51.588;7.328;2023-04-24T08:08:23;2.00;;;1.37;;
2326;SDS011;1174;51.588;7.328;2023-04-24T08:10:51;1.70;;;1.40;;
2326;SDS011;1174;51.588;7.328;2023-04-24T08:13:20;2.40;;;1.90;;
2326;SDS011;1174;51.588;7.328;2023-04-24T08:15:48;1.83;;;1.10;;
2326;SDS011;1174;51.588;7.328;2023-04-24T08:18:15;1.80;;;1.17;;
2326;SDS011;1174;51.588;7.328;2023-04-24T08:20:42;1.80;;;1.17;;
2326;SDS011;1174;51.588;7.328;2023-04-24T08:23:10;2.27;;;1.57;;
2326;SDS011;1174;51.588;7.328;2023-04-24T08:25:37;1.70;;;1.17;;
2326;SDS011;1174;51.588;7.328;2023-04-24T08:28:05;1.50;;;0.80;;
2326;SDS011;1174;51.588;7.328;2023-04-24T08:30:37;1.80;;;1.17;;
2326;SDS011;1174;51.588;7.328;2023-04-24T08:33:06;1.00;;;0.80;;
2326;SDS011;1174;51.588;7.328;2023-04-24T08:35:33;1.10;;;0.80;;
2326;SDS011;1174;51.588;7.328;2023-04-24T08:38:00;1.50;;;0.97;;
2326;SDS011;1174;51.588;7.328;2023-04-24T08:40:28;1.30;;;1.07;;
2326;SDS011;1174;51.588;7.328;2023-04-24T08:43:00;1.00;;;0.80;;
2326;SDS011;1174;51.588;7.328;2023-04-24T08:45:27;2.10;;;1.27;;
2326;SDS011;1174;51.588;7.328;2023-04-24T08:47:58;1.40;;;0.90;;
2326;SDS011;1174;51.588;7.328;2023-04-24T08:50:27;2.57;;;1.00;;
2326;SDS011;1174;51.588;7.328;2023-04-24T08:52:55;1.10;;;0.90;;
2326;SDS011;1174;51.588;7.328;2023-04-24T08:55:23;1.20;;;0.80;;
2326;SDS011;1174;51.588;7.328;2023-04-24T08:57:52;1.10;;;0.80;;
2326;SDS011;1174;51.588;7.328;2023-04-24T09:00:22;9.17;;;1.33;;
2326;SDS011;1174;51.588;7.328;2023-04-24T09:02:49;1.10;;;1.00;;
2326;SDS011;1174;51.588;7.328;2023-04-24T09:05:20;1.03;;;0.77;;
2326;SDS011;1174;51.588;7.328;2023-04-24T09:07:52;1.47;;;1.37;;
2326;SDS011;1174;51.588;7.328;2023-04-24T09:10:21;2.20;;;1.40;;
2326;SDS011;1174;51.588;7.328;2023-04-24T09:12:55;1.60;;;1.40;;
2326;SDS011;1174;51.588;7.328;2023-04-24T09:15:27;1.70;;;1.03;;
2326;SDS011;1174;51.588;7.328;2023-04-24T09:21:46;2.50;;;1.23;;
2326;SDS011;1174;51.588;7.328;2023-04-24T09:27:40;2.13;;;1.87;;
2326;SDS011;1174;51.588;7.328;2023-04-24T09:30:46;2.00;;;1.77;;
2326;SDS011;1174;51.588;7.328;2023-04-24T09:33:28;2.27;;;1.53;;
2326;SDS011;1174;51.588;7.328;2023-04-24T09:39:08;4.67;;;2.00;;
2326;SDS011;1174;51.588;7.328;2023-04-24T09:41:55;1.87;;;1.33;;
2326;SDS011;1174;51.588;7.328;2023-04-24T09:44:57;2.00;;;1.90;;
2326;SDS011;1174;51.588;7.328;2023-04-24T09:47:51;2.23;;;1.77;;
2326;SDS011;1174;51.588;7.328;2023-04-24T09:50:21;1.83;;;1.47;;
2326;SDS011;1174;51.588;7.328;2023-04-24T09:53:10;1.90;;;1.70;;
2326;SDS011;1174;51.588;7.328;2023-04-24T09:56:39;3.37;;;1.70;;
2326;SDS011;1174;51.588;7.328;2023-04-24T09:59:33;2.50;;;2.30;;
2326;SDS011;1174;51.588;7.328;2023-04-24T10:05:19;5.83;;;1.83;;
2326;SDS011;1174;51.588;7.328;2023-04-24T10:08:23;2.00;;;1.40;;
2326;SDS011;1174;51.588;7.328;2023-04-24T10:11:17;1.10;;;0.97;;
2326;SDS011;1174;51.588;7.328;2023-04-24T10:14:28;3.30;;;1.47;;
2326;SDS011;1174;51.588;7.328;2023-04-24T10:16:56;1.50;;;1.40;;
2326;SDS011;1174;51.588;7.328;2023-04-24T10:19:37;1.20;;;0.87;;
2326;SDS011;1174;51.588;7.328;2023-04-24T10:22:34;2.57;;;1.83;;
2326;SDS011;1174;51.588;7.328;2023-04-24T10:25:11;2.70;;;1.73;;
2326;SDS011;1174;51.588;7.328;2023-04-24T10:30:40;2.97;;;2.30;;
2326;SDS011;1174;51.588;7.328;2023-04-24T10:33:43;11.73;;;2.40;;
2326;SDS011;1174;51.588;7.328;2023-04-24T10:36:32;2.60;;;1.40;;
2326;SDS011;1174;51.588;7.328;2023-04-24T10:39:16;4.57;;;1.90;;
2326;SDS011;1174;51.588;7.328;2023-04-24T10:45:17;3.10;;;2.90;;
2326;SDS011;1174;51.588;7.328;2023-04-24T10:51:42;3.43;;;3.00;;
2326;SDS011;1174;51.588;7.328;2023-04-24T11:01:38;3.73;;;2.80;;
2326;SDS011;1174;51.588;7.328;2023-04-24T11:07:14;2.23;;;1.70;;
2326;SDS011;1174;51.588;7.328;2023-04-24T11:12:34;3.33;;;2.37;;
2326;SDS011;1174;51.588;7.328;2023-04-24T11:18:07;1.77;;;1.40;;
2326;SDS011;1174;51.588;7.328;2023-04-24T11:20:51;2.97;;;2.13;;
2326;SDS011;1174;51.588;7.328;2023-04-24T11:23:53;8.97;;;2.70;;
2326;SDS011;1174;51.588;7.328;2023-04-24T11:26:25;6.93;;;3.00;;
2326;SDS011;1174;51.588;7.328;2023-04-24T11:35:40;2.57;;;2.37;;
2326;SDS011;1174;51.588;7.328;2023-04-24T11:38:13;4.90;;;2.60;;
2326;SDS011;1174;51.588;7.328;2023-04-24T11:41:24;4.23;;;2.27;;
2326;SDS011;1174;51.588;7.328;2023-04-24T11:44:13;3.03;;;2.63;;
2326;SDS011;1174;51.588;7.328;2023-04-24T11:47:06;6.03;;;2.33;;
2326;SDS011;1174;51.588;7.328;2023-04-24T11:49:37;3.30;;;2.50;;
2326;SDS011;1174;51.588;7.328;2023-04-24T11:52:10;3.20;;;2.30;;
2326;SDS011;1174;51.588;7.328;2023-04-24T11:54:47;3.00;;;2.03;;
2326;SDS011;1174;51.588;7.328;2023-04-24T11:57:23;8.23;;;2.40;;
2326;SDS011;1174;51.588;7.328;2023-04-24T11:59:58;7.03;;;3.30;;
2326;SDS011;1174;51.588;7.328;2023-04-24T12:02:36;3.30;;;1.83;;
2326;SDS011;1174;51.588;7.328;2023-04-24T12:05:06;7.10;;;2.83;;
2326;SDS011;1174;51.588;7.328;2023-04-24T12:07:41;2.67;;;2.23;;
2326;SDS011;1174;51.588;7.328;2023-04-24T12:10:19;5.60;;;3.20;;
2326;SDS011;1174;51.588;7.328;2023-04-24T12:12:46;5.97;;;2.40;;
2326;SDS011;1174;51.588;7.328;2023-04-24T12:15:33;6.30;;;2.90;;
2326;SDS011;1174;51.588;7.328;2023-04-24T12:18:07;5.13;;;3.30;;
2326;SDS011;1174;51.588;7.328;2023-04-24T12:26:33;4.10;;;1.63;;
2326;SDS011;1174;51.588;7.328;2023-04-24T12:29:10;3.20;;;1.60;;
2326;SDS011;1174;51.588;7.328;2023-04-24T12:31:53;2.23;;;2.00;;
2326;SDS011;1174;51.588;7.328;2023-04-24T12:34:34;2.27;;;2.03;;
2326;SDS011;1174;51.588;7.328;2023-04-24T12:37:09;2.53;;;2.17;;
2326;SDS011;1174;51.588;7.328;2023-04-24T12:39:38;6.00;;;2.63;;
2326;SDS011;1174;51.588;7.328;2023-04-24T12:42:11;1.50;;;1.13;;
2326;SDS011;1174;51.588;7.328;2023-04-24T12:44:39;2.43;;;1.63;;
2326;SDS011;1174;51.588;7.328;2023-04-24T12:47:08;2.77;;;1.77;;
2326;SDS011;1174;51.588;7.328;2023-04-24T12:49:35;2.53;;;1.60;;
2326;SDS011;1174;51.588;7.328;2023-04-24T12:52:06;2.07;;;1.87;;
2326;SDS011;1174;51.588;7.328;2023-04-24T12:54:33;1.93;;;1.67;;
2326;SDS011;1174;51.588;7.328;2023-04-24T12:57:03;2.50;;;1.33;;
2326;SDS011;1174;51.588;7.328;2023-04-24T12:59:34;1.50;;;1.33;;
2326;SDS011;1174;51.588;7.328;2023-04-24T13:02:01;3.50;;;1.60;;
2326;SDS011;1174;51.588;7.328;2023-04-24T13:04:28;2.87;;;2.57;;
2326;SDS011;1174;51.588;7.328;2023-04-24T13:06:55;1.50;;;1.40;;
2326;SDS011;1174;51.588;7.328;2023-04-24T13:09:22;8.90;;;2.20;;
2326;SDS011;1174;51.588;7.328;2023-04-24T13:11:50;8.70;;;2.67;;
2326;SDS011;1174;51.588;7.328;2023-04-24T13:14:18;2.60;;;1.83;;
2326;SDS011;1174;51.588;7.328;2023-04-24T13:16:48;1.83;;;1.63;;
2326;SDS011;1174;51.588;7.328;2023-04-24T13:19:18;2.43;;;1.97;;
2326;SDS011;1174;51.588;7.328;2023-04-24T13:21:46;3.63;;;2.03;;
2326;SDS011;1174;51.588;7.328;2023-04-24T13:24:13;5.90;;;1.63;;
2326;SDS011;1174;51.588;7.328;2023-04-24T13:26:41;2.10;;;1.90;;
2326;SDS011;1174;51.588;7.328;2023-04-24T13:29:08;4.03;;;2.10;;
2326;SDS011;1174;51.588;7.328;2023-04-24T13:31:36;2.87;;;1.90;;
2326;SDS011;1174;51.588;7.328;2023-04-24T13:34:03;4.63;;;1.43;;
2326;SDS011;1174;51.588;7.328;2023-04-24T13:36:30;3.20;;;2.57;;
2326;SDS011;1174;51.588;7.328;2023-04-24T13:38:57;3.67;;;1.57;;
2326;SDS011;1174;51.588;7.328;2023-04-24T13:41:24;2.00;;;1.80;;
2326;SDS011;1174;51.588;7.328;2023-04-24T13:43:52;1.60;;;1.50;;
2326;SDS011;1174;51.588;7.328;2023-04-24T13:46:19;1.33;;;0.97;;
2326;SDS011;1174;51.588;7.328;2023-04-24T13:48:48;1.80;;;1.53;;
2326;SDS011;1174;51.588;7.328;2023-04-24T13:51:15;3.50;;;1.80;;
2326;SDS011;1174;51.588;7.328;2023-04-24T13:53:46;1.90;;;1.70;;
2326;SDS011;1174;51.588;7.328;2023-04-24T13:56:13;3.77;;;1.93;;
2326;SDS011;1174;51.588;7.328;2023-04-24T13:58:42;5.27;;;1.80;;
2326;SDS011;1174;51.588;7.328;2023-04-24T14:01:12;3.40;;;1.97;;
2326;SDS011;1174;51.588;7.328;2023-04-24T14:03:40;1.77;;;1.60;;
2326;SDS011;1174;51.588;7.328;2023-04-24T14:06:09;1.93;;;1.20;;
2326;SDS011;1174;51.588;7.328;2023-04-24T14:08:36;2.13;;;1.23;;
2326;SDS011;1174;51.588;7.328;2023-04-24T14:11:03;2.00;;;1.67;;
2326;SDS011;1174;51.588;7.328;2023-04-24T14:13:30;1.47;;;1.27;;
2326;SDS011;1174;51.588;7.328;2023-04-24T14:15:58;1.60;;;1.50;;
2326;SDS011;1174;51.588;7.328;2023-04-24T14:18:25;2.80;;;1.67;;
2326;SDS011;1174;51.588;7.328;2023-04-24T14:20:52;2.20;;;1.90;;
2326;SDS011;1174;51.588;7.328;2023-04-24T14:23:23;1.97;;;1.57;;
2326;SDS011;1174;51.588;7.328;2023-04-24T14:25:50;2.10;;;1.40;;
2326;SDS011;1174;51.588;7.328;2023-04-24T14:28:20;1.83;;;1.63;;
2326;SDS011;1174;51.588;7.328;2023-04-24T14:30:49;2.23;;;1.30;;
2326;SDS011;1174;51.588;7.328;2023-04-24T14:33:17;1.40;;;1.10;;
2326;SDS011;1174;51.588;7.328;2023-04-24T14:35:44;1.40;;;1.03;;
2326;SDS011;1174;51.588;7.328;2023-04-24T14:38:12;3.83;;;2.60;;
2326;SDS011;1174;51.588;7.328;2023-04-24T14:40:42;5.73;;;2.30;;
2326;SDS011;1174;51.588;7.328;2023-04-24T14:43:11;3.10;;;1.57;;
2326;SDS011;1174;51.588;7.328;2023-04-24T14:45:37;4.50;;;1.97;;
2326;SDS011;1174;51.588;7.328;2023-04-24T14:48:06;2.63;;;2.43;;
2326;SDS011;1174;51.588;7.328;2023-04-24T14:50:34;2.00;;;1.60;;
2326;SDS011;1174;51.588;7.328;2023-04-24T14:53:02;3.27;;;2.00;;
2326;SDS011;1174;51.588;7.328;2023-04-24T14:55:30;5.00;;;1.80;;
2326;SDS011;1174;51.588;7.328;2023-04-24T14:58:00;4.07;;;1.77;;
2326;SDS011;1174;51.588;7.328;2023-04-24T15:00:27;5.33;;;1.63;;
2326;SDS011;1174;51.588;7.328;2023-04-24T15:02:55;2.07;;;1.87;;
2326;SDS011;1174;51.588;7.328;2023-04-24T15:05:22;2.93;;;2.10;;
2326;SDS011;1174;51.588;7.328;2023-04-24T15:07:52;1.90;;;1.70;;
2326;SDS011;1174;51.588;7.328;2023-04-24T15:10:24;4.60;;;2.20;;
2326;SDS011;1174;51.588;7.328;2023-04-24T15:12:54;2.23;;;1.93;;
2326;SDS011;1174;51.588;7.328;2023-04-24T15:15:33;2.13;;;1.93;;
2326;SDS011;1174;51.588;7.328;2023-04-24T15:18:02;2.83;;;2.17;;
2326;SDS011;1174;51.588;7.328;2023-04-24T15:20:30;3.40;;;1.73;;
2326;SDS011;1174;51.588;7.328;2023-04-24T15:22:57;5.70;;;3.47;;
2326;SDS011;1174;51.588;7.328;2023-04-24T15:25:25;5.97;;;3.20;;
2326;SDS011;1174;51.588;7.328;2023-04-24T15:27:57;2.67;;;2.33;;
2326;SDS011;1174;51.588;7.328;2023-04-24T15:30:26;2.17;;;1.57;;
2326;SDS011;1174;51.588;7.328;2023-04-24T15:32:53;3.17;;;2.40;;
2326;SDS011;1174;51.588;7.328;2023-04-24T15:35:21;3.10;;;2.30;;
2326;SDS011;1174;51.588;7.328;2023-04-24T15:37:48;5.27;;;1.90;;
2326;SDS011;1174;51.588;7.328;2023-04-24T15:40:15;2.50;;;1.93;;
2326;SDS011;1174;51.588;7.328;2023-04-24T15:42:43;1.80;;;1.30;;
2326;SDS011;1174;51.588;7.328;2023-04-24T15:45:11;2.27;;;1.83;;
2326;SDS011;1174;51.588;7.328;2023-04-24T15:47:42;2.07;;;1.23;;
2326;SDS011;1174;51.588;7.328;2023-04-24T15:50:11;1.30;;;1.20;;
2326;SDS011;1174;51.588;7.328;2023-04-24T15:52:40;1.57;;;1.10;;
2326;SDS011;1174;51.588;7.328;2023-04-24T15:55:08;1.13;;;1.00;;
2326;SDS011;1174;51.588;7.328;2023-04-24T15:57:36;1.27;;;1.17;;
2326;SDS011;1174;51.588;7.328;2023-04-24T16:00:06;1.33;;;1.03;;
2326;SDS011;1174;51.588;7.328;2023-04-24T16:02:37;1.40;;;1.27;;
2326;SDS011;1174;51.588;7.328;2023-04-24T16:05:09;1.67;;;1.20;;
2326;SDS011;1174;51.588;7.328;2023-04-24T16:07:36;2.23;;;1.20;;
2326;SDS011;1174;51.588;7.328;2023-04-24T16:10:04;2.70;;;1.83;;
2326;SDS011;1174;51.588;7.328;2023-04-24T16:12:34;1.67;;;1.10;;
2326;SDS011;1174;51.588;7.328;2023-04-24T16:15:03;1.10;;;0.90;;
2326;SDS011;1174;51.588;7.328;2023-04-24T16:17:30;1.93;;;1.50;;
2326;SDS011;1174;51.588;7.328;2023-04-24T16:19:57;1.10;;;0.80;;
2326;SDS011;1174;51.588;7.328;2023-04-24T16:22:27;1.43;;;1.30;;
2326;SDS011;1174;51.588;7.328;2023-04-24T16:24:54;5.30;;;1.73;;
2326;SDS011;1174;51.588;7.328;2023-04-24T16:27:22;1.50;;;1.30;;
2326;SDS011;1174;51.588;7.328;2023-04-24T16:29:50;1.97;;;1.70;;